createdAt,value
2022-10-23T18:44:17.389Z,14.72
2022-10-23T18:49:20.792Z,14.71
2022-10-23T18:54:23.621Z,14.71
2022-10-23T18:59:26.405Z,14.72
2022-10-23T19:04:31.719Z,14.70
2022-10-23T19:09:37.029Z,14.72
2022-10-23T19:14:40.415Z,14.72
2022-10-23T19:19:46.384Z,14.70
2022-10-23T19:24:54.926Z,14.71
2022-10-23T19:30:01.149Z,14.75
2022-10-23T19:35:04.331Z,14.76
2022-10-23T19:40:07.985Z,14.81
2022-10-23T19:45:14.040Z,14.85
2022-10-23T19:50:16.870Z,14.91
2022-10-23T19:55:19.618Z,14.94
2022-10-23T20:00:22.574Z,14.96
2022-10-23T20:05:25.409Z,14.95
2022-10-23T20:10:28.326Z,14.94
2022-10-23T20:15:31.174Z,14.92
2022-10-23T20:20:33.918Z,14.89
2022-10-23T20:25:37.017Z,14.84
2022-10-23T20:30:41.959Z,14.81
2022-10-23T20:35:44.834Z,14.73
2022-10-23T20:40:47.547Z,14.70
2022-10-23T20:45:50.594Z,14.65
2022-10-23T20:50:53.884Z,14.55
2022-10-23T20:55:56.732Z,14.50
2022-10-23T21:01:08.765Z,14.37
2022-10-23T21:06:13.926Z,14.27
2022-10-23T21:11:17.499Z,14.17
2022-10-23T21:16:24.903Z,14.12
2022-10-23T21:21:33.061Z,14.06
2022-10-23T21:26:36.166Z,14.02
2022-10-23T21:31:39.326Z,14.02
2022-10-23T21:37:10.930Z,14.03
2022-10-23T21:42:08.861Z,14.03
2022-10-23T21:47:11.675Z,14.03
2022-10-23T21:52:16.305Z,14.08
2022-10-23T21:57:21.894Z,14.09
2022-10-23T22:02:25.102Z,14.12
2022-10-23T22:12:31.528Z,14.12
2022-10-23T22:17:34.431Z,14.06
2022-10-23T22:22:37.612Z,13.96
2022-10-23T22:27:40.367Z,13.91
2022-10-23T22:32:43.549Z,13.86
2022-10-23T22:37:46.577Z,13.81
2022-10-23T22:42:49.276Z,13.82
2022-10-23T22:47:52.082Z,13.83
2022-10-23T22:52:55.336Z,13.87
2022-10-23T22:57:58.286Z,13.91
2022-10-23T23:03:01.141Z,13.92
2022-10-23T23:08:04.072Z,13.93
2022-10-23T23:13:07.218Z,13.95
2022-10-23T23:18:09.912Z,13.96
2022-10-23T23:23:14.216Z,13.97
2022-10-23T23:28:19.302Z,13.97
2022-10-23T23:33:23.944Z,13.98
2022-10-23T23:38:27.614Z,13.99
2022-10-23T23:43:30.717Z,14.01
2022-10-23T23:48:33.709Z,14.04
2022-10-23T23:53:36.533Z,14.08
2022-10-23T23:58:39.532Z,14.09
